createdAt,value
2022-09-24T00:00:19.780Z,98461.00
2022-09-24T00:03:07.424Z,98458.00
2022-09-24T00:05:54.926Z,98454.00
2022-09-24T00:08:42.624Z,98454.00
2022-09-24T00:11:31.181Z,98459.00
2022-09-24T00:14:19.665Z,98460.00
2022-09-24T00:17:07.150Z,98462.00
2022-09-24T00:19:54.620Z,98458.00
2022-09-24T00:22:42.155Z,98459.00
2022-09-24T00:25:48.306Z,98452.00
2022-09-24T00:28:35.832Z,98448.00
2022-09-24T00:31:24.482Z,98447.00
2022-09-24T00:34:12.370Z,98449.00
2022-09-24T00:36:59.910Z,98443.00
2022-09-24T00:39:47.365Z,98436.00
2022-09-24T00:42:34.850Z,98427.00
2022-09-24T00:45:24.751Z,98427.00
2022-09-24T00:48:12.416Z,98426.00
2022-09-24T00:51:04.350Z,98420.00
2022-09-24T00:53:57.275Z,98411.00
2022-09-24T00:56:49.279Z,98408.00
2022-09-24T00:59:37.235Z,98412.00
2022-09-24T01:02:24.875Z,98407.00
2022-09-24T01:05:12.554Z,98407.00
2022-09-24T01:08:00.280Z,98402.00
2022-09-24T01:11:15.346Z,98407.00
2022-09-24T01:14:27.177Z,98412.00
2022-09-24T01:17:39.541Z,98417.00
2022-09-24T01:20:52.623Z,98412.00
2022-09-24T01:24:25.296Z,98408.00
2022-09-24T01:27:53.120Z,98400.00
2022-09-24T01:30:43.131Z,98402.00
2022-09-24T01:33:36.279Z,98398.00
2022-09-24T01:36:27.980Z,98385.00
2022-09-24T01:39:16.651Z,98380.00
2022-09-24T01:42:05.737Z,98387.00
2022-09-24T01:44:54.900Z,98385.00
2022-09-24T01:47:45.930Z,98394.00
2022-09-24T01:50:51.970Z,98389.00
2022-09-24T01:54:10.114Z,98391.00
2022-09-24T01:57:36.140Z,98388.00
2022-09-24T02:00:24.445Z,98378.00
2022-09-24T02:03:27.327Z,98384.00
2022-09-24T02:06:44.966Z,98388.00
2022-09-24T02:09:37.406Z,98381.00
2022-09-24T02:12:35.175Z,98385.00
2022-09-24T02:15:49.358Z,98367.00
2022-09-24T02:18:42.219Z,98369.00
2022-09-24T02:21:32.751Z,98375.00
2022-09-24T02:24:30.654Z,98375.00
2022-09-24T02:27:19.591Z,98372.00
2022-09-24T02:30:11.199Z,98372.00
2022-09-24T02:32:59.932Z,98362.00
2022-09-24T02:35:48.238Z,98361.00
2022-09-24T02:38:35.715Z,98352.00
2022-09-24T02:41:26.266Z,98360.00
2022-09-24T02:44:18.120Z,98365.00
2022-09-24T02:47:08.295Z,98366.00
2022-09-24T02:49:56.246Z,98368.00
2022-09-24T02:52:44.440Z,98363.00
2022-09-24T02:55:33.611Z,98361.00
2022-09-24T02:58:21.381Z,98360.00
2022-09-24T03:01:08.986Z,98355.00
2022-09-24T03:03:57.022Z,98349.00
2022-09-24T03:06:44.687Z,98347.00
2022-09-24T03:09:32.291Z,98348.00
2022-09-24T03:12:19.734Z,98347.00
2022-09-24T03:15:07.671Z,98340.00
2022-09-24T03:17:55.107Z,98338.00
2022-09-24T03:20:42.962Z,98346.00
2022-09-24T03:23:30.771Z,98341.00
2022-09-24T03:26:18.415Z,98335.00
2022-09-24T03:29:05.875Z,98333.00
2022-09-24T03:31:53.519Z,98331.00
2022-09-24T03:34:41.111Z,98329.00
2022-09-24T03:37:28.857Z,98323.00
2022-09-24T03:40:16.470Z,98328.00
2022-09-24T03:43:04.126Z,98335.00
2022-09-24T03:45:53.217Z,98327.00
2022-09-24T03:48:41.939Z,98322.00
2022-09-24T03:51:29.435Z,98311.00
2022-09-24T03:54:17.175Z,98318.00
2022-09-24T03:57:04.642Z,98313.00
2022-09-24T03:59:54.315Z,98316.00
2022-09-24T04:02:41.912Z,98319.00
2022-09-24T04:05:30.615Z,98311.00
2022-09-24T04:08:20.501Z,98312.00
2022-09-24T04:11:08.055Z,98318.00
2022-09-24T04:13:55.544Z,98313.00
2022-09-24T04:16:43.051Z,98303.00
2022-09-24T04:19:31.933Z,98297.00
2022-09-24T04:22:19.430Z,98296.00
2022-09-24T04:25:10.277Z,98300.00
2022-09-24T04:28:06.646Z,98312.00
2022-09-24T04:30:54.281Z,98310.00
2022-09-24T04:33:41.892Z,98309.00
2022-09-24T04:36:29.386Z,98318.00
2022-09-24T04:39:16.915Z,98318.00
2022-09-24T04:42:04.480Z,98307.00
2022-09-24T04:44:56.031Z,98312.00
2022-09-24T04:47:43.835Z,98307.00
2022-09-24T04:50:35.051Z,98314.00
2022-09-24T04:53:23.645Z,98313.00
2022-09-24T04:56:12.195Z,98307.00
2022-09-24T04:59:00.018Z,98312.00
2022-09-24T05:01:47.746Z,98310.00
2022-09-24T05:04:39.189Z,98320.00
2022-09-24T05:07:26.862Z,98324.00
2022-09-24T05:10:14.421Z,98315.00
2022-09-24T05:13:02.507Z,98313.00
2022-09-24T05:15:50.924Z,98318.00
2022-09-24T05:18:38.432Z,98319.00
2022-09-24T05:21:25.966Z,98318.00
2022-09-24T05:24:14.060Z,98320.00
2022-09-24T05:27:10.671Z,98296.00
2022-09-24T05:29:58.220Z,98306.00
2022-09-24T05:32:47.252Z,98305.00
2022-09-24T05:35:34.756Z,98314.00
2022-09-24T05:38:22.514Z,98308.00
2022-09-24T05:41:10.247Z,98309.00
2022-09-24T05:43:59.833Z,98309.00
2022-09-24T05:46:51.613Z,98308.00
2022-09-24T05:49:39.411Z,98307.00
2022-09-24T05:52:26.937Z,98306.00
2022-09-24T05:55:14.665Z,98308.00
2022-09-24T05:58:08.020Z,98297.00
2022-09-24T06:00:55.475Z,98299.00
2022-09-24T06:03:42.995Z,98302.00
2022-09-24T06:06:30.515Z,98294.00
2022-09-24T06:09:18.034Z,98293.00
2022-09-24T06:12:08.585Z,98294.00
2022-09-24T06:14:56.191Z,98300.00
2022-09-24T06:17:43.670Z,98299.00
2022-09-24T06:20:32.284Z,98305.00
2022-09-24T06:23:19.774Z,98312.00
2022-09-24T06:26:11.265Z,98303.00
2022-09-24T06:29:04.401Z,98307.00
2022-09-24T06:31:53.836Z,98308.00
2022-09-24T06:34:41.311Z,98307.00
2022-09-24T06:37:29.080Z,98302.00
2022-09-24T06:40:17.103Z,98306.00
2022-09-24T06:43:06.928Z,98292.00
2022-09-24T06:45:59.117Z,98298.00
2022-09-24T06:48:49.645Z,98300.00
2022-09-24T06:51:37.250Z,98298.00
2022-09-24T06:54:25.396Z,98294.00
2022-09-24T06:57:12.945Z,98281.00
2022-09-24T07:00:00.587Z,98290.00
2022-09-24T07:02:52.494Z,98282.00
2022-09-24T07:05:43.528Z,98291.00
2022-09-24T07:08:32.828Z,98287.00
2022-09-24T07:11:20.375Z,98292.00
2022-09-24T07:14:08.101Z,98294.00
2022-09-24T07:16:55.620Z,98283.00
2022-09-24T07:19:43.246Z,98295.00
2022-09-24T07:22:31.040Z,98295.00
2022-09-24T07:25:18.596Z,98295.00
2022-09-24T07:28:10.230Z,98304.00
2022-09-24T07:31:01.296Z,98303.00
2022-09-24T07:33:48.796Z,98318.00
2022-09-24T07:36:36.377Z,98316.00
2022-09-24T07:39:27.449Z,98320.00
2022-09-24T07:42:14.961Z,98323.00
2022-09-24T07:45:02.470Z,98320.00
2022-09-24T07:47:59.571Z,98315.00
2022-09-24T07:50:47.440Z,98325.00
2022-09-24T07:53:35.055Z,98326.00
2022-09-24T07:56:24.941Z,98332.00
2022-09-24T07:59:12.559Z,98327.00
2022-09-24T08:02:00.123Z,98332.00
2022-09-24T08:04:48.407Z,98322.00
2022-09-24T08:07:36.020Z,98314.00
2022-09-24T08:10:26.553Z,98306.00
2022-09-24T08:13:14.058Z,98303.00
2022-09-24T08:16:03.595Z,98305.00
2022-09-24T08:18:51.130Z,98306.00
2022-09-24T08:21:39.482Z,98309.00
2022-09-24T08:24:27.020Z,98313.00
2022-09-24T08:27:17.316Z,98317.00
2022-09-24T08:30:07.268Z,98323.00
2022-09-24T08:32:54.811Z,98327.00
2022-09-24T08:35:42.332Z,98316.00
2022-09-24T08:38:30.130Z,98304.00
2022-09-24T08:41:44.521Z,98310.00
2022-09-24T08:45:01.759Z,98316.00
2022-09-24T08:48:00.756Z,98305.00
2022-09-24T08:51:02.426Z,98301.00
2022-09-24T08:54:10.071Z,98305.00
2022-09-24T08:57:03.122Z,98307.00
2022-09-24T08:59:53.085Z,98304.00
2022-09-24T09:03:05.225Z,98308.00
2022-09-24T09:06:05.225Z,98304.00
2022-09-24T09:09:11.003Z,98302.00
2022-09-24T09:12:05.065Z,98299.00
2022-09-24T09:15:15.477Z,98299.00
2022-09-24T09:18:20.040Z,98304.00
2022-09-24T09:21:55.701Z,98295.00
2022-09-24T09:24:49.697Z,98286.00
2022-09-24T09:27:37.330Z,98284.00
2022-09-24T09:30:25.021Z,98285.00
2022-09-24T09:33:19.760Z,98287.00
2022-09-24T09:36:25.436Z,98280.00
2022-09-24T09:40:10.455Z,98279.00
2022-09-24T09:43:07.716Z,98279.00
2022-09-24T09:46:25.764Z,98274.00
2022-09-24T09:49:15.596Z,98267.00
2022-09-24T09:52:21.560Z,98263.00
2022-09-24T09:55:21.066Z,98261.00
2022-09-24T09:58:27.849Z,98259.00
2022-09-24T10:01:18.811Z,98256.00
2022-09-24T10:04:06.729Z,98255.00
2022-09-24T10:07:12.405Z,98262.00
2022-09-24T10:10:16.910Z,98256.00
2022-09-24T10:13:13.456Z,98255.00
2022-09-24T10:16:10.404Z,98257.00
2022-09-24T10:18:58.021Z,98249.00
2022-09-24T10:21:45.625Z,98250.00
2022-09-24T10:24:35.097Z,98248.00
2022-09-24T10:27:38.036Z,98249.00
2022-09-24T10:30:34.476Z,98253.00
2022-09-24T10:33:23.002Z,98249.00
2022-09-24T10:36:19.255Z,98243.00
2022-09-24T10:39:15.701Z,98249.00
2022-09-24T10:42:03.340Z,98246.00
2022-09-24T10:44:52.939Z,98251.00
2022-09-24T10:47:53.635Z,98249.00
2022-09-24T10:50:49.954Z,98253.00
2022-09-24T10:53:41.681Z,98251.00
2022-09-24T10:56:46.658Z,98244.00
2022-09-24T11:00:03.200Z,98248.00
2022-09-24T11:03:36.956Z,98242.00
2022-09-24T11:07:03.306Z,98245.00
2022-09-24T11:10:15.714Z,98250.00
2022-09-24T11:13:40.781Z,98247.00
2022-09-24T11:16:49.225Z,98240.00
2022-09-24T11:20:13.404Z,98238.00
2022-09-24T11:23:15.771Z,98234.00
2022-09-24T11:26:24.852Z,98229.00
2022-09-24T11:29:49.185Z,98226.00
2022-09-24T11:32:59.431Z,98227.00
2022-09-24T11:36:16.195Z,98225.00
2022-09-24T11:39:34.480Z,98214.00
2022-09-24T11:42:29.131Z,98217.00
2022-09-24T11:45:19.600Z,98225.00
2022-09-24T11:48:44.942Z,98214.00
2022-09-24T11:51:32.406Z,98217.00
2022-09-24T11:54:30.470Z,98214.00
2022-09-24T11:57:37.684Z,98218.00
2022-09-24T12:00:34.071Z,98215.00
2022-09-24T12:03:46.070Z,98218.00
2022-09-24T12:07:13.441Z,98214.00
2022-09-24T12:10:37.367Z,98217.00
2022-09-24T12:13:45.337Z,98209.00
2022-09-24T12:16:38.506Z,98210.00
2022-09-24T12:19:42.101Z,98207.00
2022-09-24T12:22:33.427Z,98213.00
2022-09-24T12:25:20.924Z,98211.00
2022-09-24T12:28:40.000Z,98211.00
2022-09-24T12:32:03.388Z,98203.00
2022-09-24T12:35:15.246Z,98202.00
2022-09-24T12:38:42.600Z,98192.00
2022-09-24T12:41:49.756Z,98198.00
2022-09-24T12:44:50.951Z,98191.00
2022-09-24T12:47:56.042Z,98193.00
2022-09-24T12:50:46.180Z,98190.00
2022-09-24T12:53:43.277Z,98182.00
2022-09-24T12:56:31.508Z,98188.00
2022-09-24T12:59:28.518Z,98179.00
2022-09-24T13:02:43.162Z,98179.00
2022-09-24T13:05:43.151Z,98181.00
2022-09-24T13:08:41.325Z,98182.00
2022-09-24T13:11:37.952Z,98181.00
2022-09-24T13:14:30.661Z,98186.00
2022-09-24T13:17:18.721Z,98189.00
2022-09-24T13:20:17.801Z,98190.00
2022-09-24T13:23:23.120Z,98189.00
2022-09-24T13:26:31.302Z,98181.00
2022-09-24T13:29:26.550Z,98175.00
2022-09-24T13:32:21.767Z,98171.00
2022-09-24T13:35:22.173Z,98165.00
2022-09-24T13:38:31.534Z,98156.00
2022-09-24T13:41:50.884Z,98159.00
2022-09-24T13:44:56.412Z,98162.00
2022-09-24T13:48:05.793Z,98165.00
2022-09-24T13:50:53.886Z,98167.00
2022-09-24T13:54:34.320Z,98156.00
2022-09-24T13:57:26.559Z,98164.00
2022-09-24T14:00:20.227Z,98156.00
2022-09-24T14:03:30.047Z,98156.00
2022-09-24T14:06:23.065Z,98161.00
2022-09-24T14:09:32.400Z,98165.00
2022-09-24T14:12:22.862Z,98156.00
2022-09-24T14:15:19.410Z,98161.00
2022-09-24T14:18:14.385Z,98160.00
2022-09-24T14:21:11.860Z,98164.00
2022-09-24T14:24:07.017Z,98165.00
2022-09-24T14:27:25.071Z,98167.00
2022-09-24T14:30:24.041Z,98167.00
2022-09-24T14:33:18.250Z,98165.00
2022-09-24T14:36:10.240Z,98167.00
2022-09-24T14:39:04.581Z,98173.00
2022-09-24T14:41:53.430Z,98175.00
2022-09-24T14:44:46.412Z,98168.00
2022-09-24T14:47:37.010Z,98166.00
2022-09-24T14:50:30.786Z,98164.00
2022-09-24T14:53:21.236Z,98176.00
2022-09-24T14:56:26.410Z,98182.00
2022-09-24T14:59:17.920Z,98179.00
2022-09-24T15:02:34.990Z,98179.00
2022-09-24T15:05:28.249Z,98175.00
2022-09-24T15:08:28.233Z,98169.00
2022-09-24T15:11:21.407Z,98171.00
2022-09-24T15:14:19.290Z,98169.00
2022-09-24T15:17:22.340Z,98167.00
2022-09-24T15:20:12.888Z,98174.00
2022-09-24T15:23:00.356Z,98167.00
2022-09-24T15:25:48.081Z,98161.00
2022-09-24T15:28:35.580Z,98170.00
2022-09-24T15:31:23.307Z,98165.00
2022-09-24T15:34:10.966Z,98160.00
2022-09-24T15:37:00.155Z,98151.00
2022-09-24T15:39:52.755Z,98156.00
2022-09-24T15:42:40.231Z,98150.00
2022-09-24T15:45:28.158Z,98145.00
2022-09-24T15:48:15.902Z,98146.00
2022-09-24T15:51:10.077Z,98156.00
2022-09-24T15:53:59.416Z,98149.00
2022-09-24T15:56:52.249Z,98155.00
2022-09-24T15:59:40.561Z,98162.00
2022-09-24T16:02:33.228Z,98163.00
2022-09-24T16:05:21.664Z,98152.00
2022-09-24T16:08:09.165Z,98163.00
2022-09-24T16:10:56.730Z,98156.00
2022-09-24T16:13:44.217Z,98156.00
2022-09-24T16:16:31.898Z,98151.00
2022-09-24T16:19:19.520Z,98155.00
2022-09-24T16:22:07.145Z,98160.00
2022-09-24T16:24:54.688Z,98146.00
2022-09-24T16:27:42.726Z,98154.00
2022-09-24T16:30:31.502Z,98157.00
2022-09-24T16:33:20.971Z,98160.00
2022-09-24T16:36:09.711Z,98158.00
2022-09-24T16:38:58.899Z,98165.00
2022-09-24T16:41:51.490Z,98169.00
2022-09-24T16:44:39.015Z,98165.00
2022-09-24T16:47:26.637Z,98173.00
2022-09-24T16:50:15.561Z,98169.00
2022-09-24T16:53:03.266Z,98178.00
2022-09-24T16:55:50.803Z,98172.00
2022-09-24T16:58:38.276Z,98175.00
2022-09-24T17:01:25.811Z,98165.00
2022-09-24T17:04:13.837Z,98171.00
2022-09-24T17:07:01.341Z,98171.00
2022-09-24T17:10:07.650Z,98162.00
2022-09-24T17:12:55.196Z,98163.00
2022-09-24T17:15:42.800Z,98171.00
2022-09-24T17:18:30.335Z,98165.00
2022-09-24T17:21:18.131Z,98167.00
2022-09-24T17:24:06.965Z,98174.00
2022-09-24T17:26:55.225Z,98176.00
2022-09-24T17:29:43.121Z,98169.00
2022-09-24T17:32:30.822Z,98166.00
2022-09-24T17:35:21.510Z,98172.00
2022-09-24T17:38:09.086Z,98176.00
2022-09-24T17:40:58.739Z,98178.00
2022-09-24T17:43:46.551Z,98184.00
2022-09-24T17:46:36.037Z,98186.00
2022-09-24T17:49:23.683Z,98189.00
2022-09-24T17:52:13.509Z,98180.00
2022-09-24T17:55:01.090Z,98197.00
2022-09-24T17:57:48.571Z,98188.00
2022-09-24T18:00:36.126Z,98189.00
2022-09-24T18:03:23.647Z,98197.00
2022-09-24T18:06:15.331Z,98198.00
2022-09-24T18:09:03.596Z,98203.00
2022-09-24T18:11:52.852Z,98206.00
2022-09-24T18:14:40.363Z,98214.00
2022-09-24T18:17:28.048Z,98211.00
2022-09-24T18:20:15.752Z,98213.00
2022-09-24T18:23:03.462Z,98199.00
2022-09-24T18:25:50.959Z,98208.00
2022-09-24T18:28:48.066Z,98205.00
2022-09-24T18:31:37.165Z,98187.00
2022-09-24T18:34:25.320Z,98193.00
2022-09-24T18:37:12.816Z,98195.00
2022-09-24T18:40:00.565Z,98192.00
2022-09-24T18:42:50.257Z,98202.00
2022-09-24T18:45:37.885Z,98196.00
2022-09-24T18:48:25.436Z,98200.00
2022-09-24T18:51:35.981Z,98206.00
2022-09-24T18:54:24.972Z,98209.00
2022-09-24T18:57:12.486Z,98200.00
2022-09-24T19:00:00.022Z,98204.00
2022-09-24T19:02:47.698Z,98204.00
2022-09-24T19:05:35.427Z,98200.00
2022-09-24T19:08:24.620Z,98203.00
2022-09-24T19:11:14.466Z,98198.00
2022-09-24T19:14:05.068Z,98201.00
2022-09-24T19:16:56.474Z,98206.00
2022-09-24T19:19:52.167Z,98197.00
2022-09-24T19:22:40.074Z,98202.00
2022-09-24T19:25:32.560Z,98199.00
2022-09-24T19:28:20.266Z,98186.00
2022-09-24T19:31:19.147Z,98193.00
2022-09-24T19:34:11.545Z,98192.00
2022-09-24T19:36:59.126Z,98195.00
2022-09-24T19:39:46.711Z,98205.00
2022-09-24T19:42:34.227Z,98211.00
2022-09-24T19:45:21.857Z,98204.00
2022-09-24T19:48:09.361Z,98210.00
2022-09-24T19:51:03.640Z,98208.00
2022-09-24T19:53:57.541Z,98218.00
2022-09-24T19:56:45.081Z,98221.00
2022-09-24T19:59:32.570Z,98214.00
2022-09-24T20:02:20.263Z,98218.00
2022-09-24T20:05:08.420Z,98217.00
2022-09-24T20:07:55.965Z,98216.00
2022-09-24T20:10:45.005Z,98220.00
2022-09-24T20:13:34.065Z,98226.00
2022-09-24T20:16:26.458Z,98226.00
2022-09-24T20:19:17.043Z,98222.00
2022-09-24T20:22:08.501Z,98217.00
2022-09-24T20:24:56.300Z,98217.00
2022-09-24T20:27:52.965Z,98213.00
2022-09-24T20:30:40.938Z,98219.00
2022-09-24T20:33:29.400Z,98223.00
2022-09-24T20:36:23.239Z,98217.00
2022-09-24T20:39:11.982Z,98219.00
2022-09-24T20:42:03.985Z,98215.00
2022-09-24T20:44:52.749Z,98213.00
2022-09-24T20:47:40.323Z,98215.00
2022-09-24T20:50:27.876Z,98213.00
2022-09-24T20:53:15.347Z,98210.00
2022-09-24T20:56:05.135Z,98211.00
2022-09-24T20:58:53.811Z,98216.00
2022-09-24T21:01:41.685Z,98218.00
2022-09-24T21:04:29.217Z,98218.00
2022-09-24T21:07:16.781Z,98226.00
2022-09-24T21:10:04.581Z,98231.00
2022-09-24T21:12:52.087Z,98226.00
2022-09-24T21:15:39.727Z,98227.00
2022-09-24T21:18:33.314Z,98230.00
2022-09-24T21:21:34.820Z,98230.00
2022-09-24T21:24:26.332Z,98229.00
2022-09-24T21:27:19.056Z,98222.00
2022-09-24T21:30:08.027Z,98225.00
2022-09-24T21:32:55.516Z,98227.00
2022-09-24T21:35:42.980Z,98225.00
2022-09-24T21:38:31.287Z,98223.00
2022-09-24T21:41:18.768Z,98222.00
2022-09-24T21:44:12.581Z,98219.00
2022-09-24T21:47:01.495Z,98219.00
2022-09-24T21:49:49.006Z,98215.00
2022-09-24T21:52:38.272Z,98213.00
2022-09-24T21:55:25.780Z,98207.00
2022-09-24T21:58:13.256Z,98202.00
2022-09-24T22:01:04.960Z,98214.00
2022-09-24T22:04:07.545Z,98208.00
2022-09-24T22:06:55.198Z,98210.00
2022-09-24T22:09:42.730Z,98204.00
2022-09-24T22:12:30.456Z,98205.00
2022-09-24T22:15:18.021Z,98207.00
2022-09-24T22:18:05.721Z,98205.00
2022-09-24T22:20:55.261Z,98206.00
2022-09-24T22:23:42.881Z,98202.00
2022-09-24T22:26:30.627Z,98198.00
2022-09-24T22:29:18.177Z,98198.00
2022-09-24T22:32:05.782Z,98208.00
2022-09-24T22:35:11.890Z,98209.00
2022-09-24T22:37:59.615Z,98202.00
2022-09-24T22:40:48.023Z,98203.00
2022-09-24T22:43:35.825Z,98201.00
2022-09-24T22:46:27.571Z,98202.00
2022-09-24T22:49:15.251Z,98198.00
2022-09-24T22:52:02.831Z,98200.00
2022-09-24T22:54:50.343Z,98201.00
2022-09-24T22:57:37.821Z,98203.00
2022-09-24T23:00:25.361Z,98200.00
2022-09-24T23:03:12.817Z,98191.00
2022-09-24T23:06:00.434Z,98201.00
2022-09-24T23:08:49.552Z,98201.00
2022-09-24T23:11:37.160Z,98201.00
2022-09-24T23:14:24.872Z,98200.00
2022-09-24T23:17:12.434Z,98201.00
2022-09-24T23:19:59.980Z,98191.00
2022-09-24T23:22:47.601Z,98190.00
2022-09-24T23:25:35.085Z,98196.00
2022-09-24T23:28:22.656Z,98196.00
2022-09-24T23:31:14.796Z,98203.00
2022-09-24T23:34:03.470Z,98214.00
2022-09-24T23:36:51.389Z,98209.00
2022-09-24T23:39:39.513Z,98201.00
2022-09-24T23:42:27.262Z,98210.00
2022-09-24T23:45:15.319Z,98197.00
2022-09-24T23:48:02.877Z,98189.00
2022-09-24T23:50:51.310Z,98189.00
2022-09-24T23:53:41.464Z,98188.00
2022-09-24T23:56:29.200Z,98196.00
2022-09-24T23:59:16.878Z,98205.00
